Time;durP1;ratioP1;P1;durP2;ratioP2;P2;SDS_P1;SDS_P2;PMS_P1;PMS_P2;Temp;Humidity;BMP_temperature;BMP_pressure;BME280_temperature;BME280_humidity;BME280_pressure;Samples;Min_cycle;Max_cycle;Signal;HPM_P1;HPM_P2
2022/04/19 00:00:39;;;;;;;10.23;6.57;;;10.90;99.90;;;;;;5071451;27;20433;-64
2022/04/19 00:03:06;;;;;;;9.43;6.90;;;;;;;;;;5070831;27;20416;-65
2022/04/19 00:05:36;;;;;;;10.25;6.72;;;11.20;99.90;;;;;;5075079;28;20411;-64
2022/04/19 00:08:02;;;;;;;9.48;6.80;;;;;;;;;;5071509;27;20487;-65
2022/04/19 00:10:29;;;;;;;13.53;7.00;;;;;;;;;;5076331;27;20520;-64
2022/04/19 00:12:55;;;;;;;8.45;6.55;;;;;;;;;;5073008;28;20422;-64
2022/04/19 00:15:22;;;;;;;8.75;6.78;;;;;;;;;;5122437;27;20410;-65
2022/04/19 00:17:48;;;;;;;8.73;6.57;;;;;;;;;;5078029;27;20443;-64
2022/04/19 00:20:15;;;;;;;8.60;6.68;;;;;;;;;;5077391;27;20430;-65
2022/04/19 00:22:41;;;;;;;9.57;6.50;;;;;;;;;;5069372;27;20428;-64
2022/04/19 00:25:08;;;;;;;10.68;6.72;;;;;;;;;;5056006;28;20457;-65
2022/04/19 00:27:34;;;;;;;9.43;6.72;;;;;;;;;;5057479;27;20963;-64
2022/04/19 00:30:01;;;;;;;10.83;7.13;;;;;;;;;;5064366;27;20424;-65
2022/04/19 00:32:27;;;;;;;9.57;7.18;;;;;;;;;;5093717;27;20426;-65
2022/04/19 00:34:53;;;;;;;12.60;7.37;;;10.10;99.90;;;;;;5068804;28;20480;-64
2022/04/19 00:37:19;;;;;;;11.13;7.67;;;;;;;;;;5074098;28;20981;-65
2022/04/19 00:39:46;;;;;;;10.23;7.40;;;;;;;;;;5073716;28;20419;-65
2022/04/19 00:42:12;;;;;;;8.85;7.18;;;;;;;;;;5067035;27;20421;-64
2022/04/19 00:44:39;;;;;;;10.60;7.32;;;;;;;;;;5069649;28;20424;-65
2022/04/19 00:47:09;;;;;;;9.93;7.40;;;9.90;99.90;;;;;;5068915;28;20451;-64
2022/04/19 00:49:39;;;;;;;11.63;7.40;;;;;;;;;;5089643;27;20429;-65
2022/04/19 00:52:07;;;;;;;10.13;7.47;;;;;;;;;;5066811;27;20426;-65
2022/04/19 00:54:33;;;;;;;10.85;7.53;;;;;;;;;;5073234;28;20423;-65
2022/04/19 00:56:59;;;;;;;10.55;7.78;;;;;;;;;;5052695;28;20424;-64
2022/04/19 00:59:25;;;;;;;10.88;7.40;;;;;;;;;;5073949;27;20445;-64
2022/04/19 01:01:52;;;;;;;11.68;7.68;;;;;;;;;;5070447;27;20440;-64
2022/04/19 01:04:18;;;;;;;10.25;7.85;;;;;;;;;;5063265;27;20459;-64
2022/04/19 01:06:44;;;;;;;14.60;8.40;;;9.80;99.90;;;;;;5068500;28;20412;-65
2022/04/19 01:09:10;;;;;;;12.35;8.55;;;9.60;99.90;;;;;;5071997;28;20476;-64
2022/04/19 01:14:21;;;;;;;11.50;8.65;;;;;;;;;;5062588;27;20454;-64
2022/04/19 01:16:47;;;;;;;12.05;8.57;;;;;;;;;;5061973;27;20428;-66
2022/04/19 01:19:17;;;;;;;10.90;8.88;;;;;;;;;;5071905;28;20426;-65
2022/04/19 01:21:46;;;;;;;12.52;8.98;;;;;;;;;;5072768;28;20439;-67
2022/04/19 01:24:19;;;;;;;11.02;8.45;;;;;;;;;;5105016;27;20426;-65
2022/04/19 01:26:46;;;;;;;14.00;8.60;;;;;;;;;;5051455;27;20480;-64
2022/04/19 01:29:13;;;;;;;13.05;8.70;;;;;;;;;;5070870;28;20927;-64
2022/04/19 01:31:40;;;;;;;12.43;8.93;;;9.40;99.90;;;;;;5072063;28;20432;-64
2022/04/19 01:34:07;;;;;;;12.40;9.23;;;;;;;;;;5071737;27;20547;-65
2022/04/19 01:36:37;;;;;;;12.73;9.40;;;;;;;;;;5071329;28;20830;-65
2022/04/19 01:39:07;;;;;;;12.00;8.45;;;;;;;;;;5069188;28;20424;-64
2022/04/19 01:41:33;;;;;;;13.48;9.38;;;;;;;;;;5049881;27;20434;-64
2022/04/19 01:43:59;;;;;;;13.95;8.98;;;9.30;99.90;;;;;;5070373;27;20440;-64
2022/04/19 01:46:26;;;;;;;11.02;8.35;;;;;;;;;;5050428;28;20513;-65
2022/04/19 01:48:54;;;;;;;13.63;8.85;;;;;;;;;;5068981;28;20881;-64
2022/04/19 01:51:21;;;;;;;11.85;8.95;;;;;;;;;;5067561;27;20425;-64
2022/04/19 01:53:49;;;;;;;11.82;8.93;;;;;;;;;;5069954;27;20432;-65
2022/04/19 01:56:14;;;;;;;12.50;8.82;;;9.00;99.90;;;;;;5048323;27;20424;-64
2022/04/19 01:58:40;;;;;;;11.50;8.90;;;;;;;;;;5073318;28;20508;-65
2022/04/19 02:01:06;;;;;;;11.38;8.85;;;9.10;99.90;;;;;;5068270;28;20432;-64
2022/04/19 02:03:34;;;;;;;13.32;9.63;;;9.20;99.90;;;;;;5061062;27;20439;-65
2022/04/19 02:06:00;;;;;;;11.95;9.18;;;;;;;;;;5070908;27;20419;-65
2022/04/19 02:08:27;;;;;;;13.20;9.40;;;;;;;;;;5070995;28;20507;-65
2022/04/19 02:10:53;;;;;;;14.15;9.18;;;;;;;;;;5054315;27;20427;-66
2022/04/19 02:13:20;;;;;;;13.77;9.90;;;8.90;99.90;;;;;;5063912;28;20468;-64
2022/04/19 02:15:46;;;;;;;14.20;9.65;;;;;;;;;;5071491;27;20828;-65
2022/04/19 02:18:13;;;;;;;15.38;9.70;;;;;;;;;;5071389;28;20415;-64
2022/04/19 02:20:39;;;;;;;13.27;9.57;;;;;;;;;;5070134;28;20415;-65
2022/04/19 02:23:05;;;;;;;14.27;9.70;;;;;;;;;;5048390;28;20435;-64
2022/04/19 02:25:31;;;;;;;13.35;9.48;;;;;;;;;;5047833;27;20433;-65
2022/04/19 02:27:58;;;;;;;15.93;10.38;;;;;;;;;;5056018;28;20490;-65
2022/04/19 02:30:24;;;;;;;13.70;10.40;;;;;;;;;;5069494;28;20422;-64
2022/04/19 02:32:51;;;;;;;15.30;10.95;;;;;;;;;;5071482;28;20558;-65
2022/04/19 02:35:18;;;;;;;15.60;10.17;;;;;;;;;;5064967;27;20418;-64
2022/04/19 02:37:55;;;;;;;13.65;10.25;;;8.40;99.90;;;;;;5066781;28;20546;-64
2022/04/19 02:40:22;;;;;;;13.30;10.05;;;;;;;;;;5073188;27;20424;-65
2022/04/19 02:42:49;;;;;;;15.70;10.27;;;;;;;;;;5065981;28;20502;-65
2022/04/19 02:45:16;;;;;;;15.27;10.88;;;;;;;;;;5065530;27;20431;-65
2022/04/19 02:47:42;;;;;;;15.18;10.88;;;8.30;99.90;;;;;;5070680;27;20459;-65
2022/04/19 02:50:09;;;;;;;13.88;10.63;;;;;;;;;;5063518;27;20425;-65
2022/04/19 02:52:34;;;;;;;13.95;10.90;;;8.00;99.90;;;;;;5068414;28;20461;-64
2022/04/19 02:55:00;;;;;;;15.43;11.07;;;;;;;;;;5068791;27;20420;-65
2022/04/19 02:57:26;;;;;;;15.13;11.10;;;;;;;;;;5071978;28;20427;-65
2022/04/19 02:59:53;;;;;;;15.48;11.25;;;;;;;;;;5052797;28;20430;-65
2022/04/19 03:02:20;;;;;;;16.25;11.75;;;;;;;;;;5070915;27;20435;-65
2022/04/19 03:04:46;;;;;;;15.85;11.27;;;;;;;;;;5053079;27;20445;-64
2022/04/19 03:07:15;;;;;;;16.20;11.43;;;;;;;;;;5047502;27;20991;-65
2022/04/19 03:09:42;;;;;;;14.80;11.20;;;;;;;;;;5048726;28;20555;-65
2022/04/19 03:12:10;;;;;;;19.00;11.82;;;;;;;;;;5050209;27;20504;-66
2022/04/19 03:14:37;;;;;;;17.00;12.23;;;;;;;;;;5053653;27;20433;-65
2022/04/19 03:17:04;;;;;;;16.33;12.20;;;;;;;;;;5046847;27;20421;-64
2022/04/19 03:19:30;;;;;;;18.88;12.77;;;;;;;;;;5049292;27;20450;-64
2022/04/19 03:21:56;;;;;;;18.27;12.50;;;;;;;;;;5043390;28;20424;-65
2022/04/19 03:29:52;;;;;;;15.18;11.98;;;;;;;;;;5046588;28;20433;-65
2022/04/19 03:32:19;;;;;;;16.88;12.00;;;7.40;99.90;;;;;;5043980;27;20431;-65
2022/04/19 03:34:46;;;;;;;16.48;11.98;;;7.10;99.90;;;;;;5051201;28;21280;-64
2022/04/19 03:37:13;;;;;;;17.77;12.60;;;;;;;;;;5052249;27;20622;-65
2022/04/19 03:39:39;;;;;;;16.35;12.15;;;;;;;;;;5051390;28;20430;-66
2022/04/19 03:42:08;;;;;;;15.82;12.13;;;;;;;;;;5049053;27;20429;-67
2022/04/19 03:44:34;;;;;;;15.65;12.43;;;;;;;;;;5056703;28;20856;-67
2022/04/19 03:47:09;;;;;;;16.38;12.20;;;;;;;;;;5053072;27;20410;-65
2022/04/19 03:49:35;;;;;;;17.50;12.60;;;;;;;;;;5045967;27;20499;-65
2022/04/19 03:52:02;;;;;;;18.70;12.48;;;;;;;;;;5051853;28;20774;-66
2022/04/19 03:54:28;;;;;;;15.63;11.95;;;;;;;;;;5043382;28;20426;-66
2022/04/19 03:56:54;;;;;;;16.87;12.63;;;;;;;;;;5051231;28;20555;-66
2022/04/19 03:59:22;;;;;;;18.33;12.68;;;;;;;;;;5045350;27;20429;-65
2022/04/19 04:01:48;;;;;;;16.30;12.07;;;7.30;99.90;;;;;;5055589;28;20424;-65
2022/04/19 04:04:14;;;;;;;18.88;12.05;;;;;;;;;;5058247;27;20435;-66
2022/04/19 04:06:40;;;;;;;15.90;11.90;;;;;;;;;;5074443;27;20526;-66
2022/04/19 04:09:06;;;;;;;18.58;12.10;;;;;;;;;;5074004;27;20423;-65
2022/04/19 04:11:32;;;;;;;16.70;12.10;;;;;;;;;;5070601;27;20427;-66
2022/04/19 04:13:58;;;;;;;16.38;11.88;;;;;;;;;;5055657;28;20411;-65
2022/04/19 04:16:24;;;;;;;16.13;11.73;;;;;;;;;;5070596;27;20513;-64
2022/04/19 04:18:51;;;;;;;17.80;11.83;;;;;;;;;;5068554;27;20518;-64
2022/04/19 04:21:17;;;;;;;16.05;11.40;;;;;;;;;;5072621;28;20487;-65
2022/04/19 04:23:43;;;;;;;17.80;11.85;;;;;;;;;;5075908;27;20497;-65
2022/04/19 04:26:09;;;;;;;15.38;11.10;;;;;;;;;;5073679;27;20420;-64
2022/04/19 04:28:35;;;;;;;17.20;12.50;;;;;;;;;;5071603;27;20958;-65
2022/04/19 04:31:01;;;;;;;19.38;12.60;;;;;;;;;;5074203;28;20422;-64
2022/04/19 04:33:27;;;;;;;16.63;11.80;;;;;;;;;;5051309;28;20502;-65
2022/04/19 04:35:53;;;;;;;16.50;12.07;;;;;;;;;;5071200;28;20416;-66
2022/04/19 04:38:19;;;;;;;16.33;11.95;;;;;;;;;;5063045;27;20431;-64
2022/04/19 04:40:45;;;;;;;18.48;12.05;;;;;;;;;;5071466;28;20431;-65
2022/04/19 04:43:11;;;;;;;19.00;12.30;;;;;;;;;;5071591;28;20416;-64
2022/04/19 04:45:37;;;;;;;18.52;13.70;;;;;;;;;;5072048;28;20430;-65
2022/04/19 04:50:49;;;;;;;18.60;13.13;;;;;;;;;;5071993;28;20445;-66
2022/04/19 04:53:15;;;;;;;20.58;13.60;;;;;;;;;;5074737;28;20419;-65
2022/04/19 04:55:41;;;;;;;19.42;14.05;;;;;;;;;;5071829;28;20415;-65
2022/04/19 04:58:09;;;;;;;19.23;13.63;;;;;;;;;;5073433;27;20440;-65
2022/04/19 05:00:35;;;;;;;19.65;13.73;;;;;;;;;;5062098;27;20495;-64
2022/04/19 05:03:01;;;;;;;18.35;13.63;;;;;;;;;;5065058;28;20435;-65
2022/04/19 05:05:28;;;;;;;20.30;14.80;;;;;;;;;;5056118;28;20424;-65
2022/04/19 05:07:53;;;;;;;23.60;13.57;;;7.40;99.90;;;;;;5069100;27;20936;-66
2022/04/19 05:10:19;;;;;;;21.33;14.50;;;;;;;;;;5067800;27;20429;-65
2022/04/19 05:12:45;;;;;;;23.67;14.00;;;;;;;;;;5064865;27;20418;-66
2022/04/19 05:15:11;;;;;;;20.50;14.35;;;;;;;;;;5050795;27;21017;-64
2022/04/19 05:17:38;;;;;;;21.27;14.50;;;;;;;;;;5072639;27;20472;-65
2022/04/19 05:20:04;;;;;;;21.20;14.52;;;;;;;;;;5028095;27;20440;-65
2022/04/19 05:22:31;;;;;;;19.38;13.50;;;;;;;;;;5083593;27;20428;-65
2022/04/19 05:24:57;;;;;;;19.90;13.88;;;;;;;;;;5077653;27;20423;-65
2022/04/19 05:27:23;;;;;;;19.70;13.25;;;;;;;;;;5072747;28;20428;-65
2022/04/19 05:29:50;;;;;;;18.67;13.13;;;;;;;;;;5068698;28;20420;-65
2022/04/19 05:32:16;;;;;;;17.73;12.23;;;;;;;;;;5071404;28;20412;-66
2022/04/19 05:34:42;;;;;;;18.58;12.57;;;;;;;;;;5065867;28;20423;-65
2022/04/19 05:37:08;;;;;;;17.50;12.55;;;;;;;;;;5071807;28;20432;-65
2022/04/19 05:39:34;;;;;;;17.70;12.07;;;8.00;99.90;;;;;;5062731;28;20475;-64
2022/04/19 05:42:00;;;;;;;18.73;12.90;;;;;;;;;;5052506;27;20416;-65
2022/04/19 05:44:26;;;;;;;17.17;12.00;;;;;;;;;;5069823;27;20430;-65
2022/04/19 05:46:53;;;;;;;17.45;12.32;;;;;;;;;;5066304;28;20455;-64
2022/04/19 05:49:19;;;;;;;17.02;11.70;;;;;;;;;;5070985;28;20429;-65
2022/04/19 05:51:44;;;;;;;15.30;11.40;;;8.20;99.90;;;;;;5072910;28;20424;-64
2022/04/19 05:54:10;;;;;;;17.53;12.30;;;;;;;;;;5070390;28;20464;-65
2022/04/19 05:56:36;;;;;;;15.90;11.30;;;;;;;;;;5069064;27;20427;-64
2022/04/19 05:59:03;;;;;;;16.33;11.60;;;;;;;;;;5047922;28;20439;-65
2022/04/19 06:04:51;;;;;;;14.85;11.20;;;;;;;;;;5063871;28;20439;-65
2022/04/19 06:06:59;;;;;;;14.75;10.65;;;;;;;;;;5072515;28;20440;-66
2022/04/19 06:09:25;;;;;;;13.55;9.95;;;;;;;;;;5064978;28;20570;-65
2022/04/19 06:11:51;;;;;;;14.18;10.20;;;;;;;;;;5047361;27;20416;-65
2022/04/19 06:14:18;;;;;;;14.50;10.85;;;;;;;;;;5071581;28;20452;-65
2022/04/19 06:16:44;;;;;;;16.17;10.32;;;;;;;;;;5070453;28;20928;-64
2022/04/19 06:19:10;;;;;;;15.57;9.73;;;;;;;;;;5068571;27;20426;-65
2022/04/19 06:21:36;;;;;;;15.38;10.15;;;;;;;;;;5067200;28;20469;-64
2022/04/19 06:24:04;;;;;;;15.67;9.90;;;;;;;;;;5107000;27;20519;-65
2022/04/19 06:26:30;;;;;;;13.70;9.23;;;;;;;;;;5063634;28;20434;-64
2022/04/19 06:28:56;;;;;;;14.77;9.35;;;;;;;;;;5073004;27;20428;-65
2022/04/19 06:31:22;;;;;;;14.05;9.70;;;;;;;;;;5072112;28;20451;-65
2022/04/19 06:33:48;;;;;;;19.33;9.82;;;;;;;;;;5063631;28;20428;-64
2022/04/19 06:36:14;;;;;;;14.55;9.40;;;;;;;;;;5069304;28;20408;-65
2022/04/19 06:38:40;;;;;;;13.02;9.15;;;;;;;;;;5064594;27;21086;-65
2022/04/19 06:41:08;;;;;;;12.53;8.97;;;;;;;;;;5068856;28;20796;-65
2022/04/19 06:43:34;;;;;;;14.47;9.27;;;;;;;;;;5068413;28;21085;-65
2022/04/19 06:46:00;;;;;;;12.05;9.07;;;;;;;;;;5069099;28;20503;-65
2022/04/19 06:48:26;;;;;;;13.20;9.02;;;;;;;;;;5067646;27;20845;-65
2022/04/19 06:50:52;;;;;;;15.43;9.07;;;;;;;;;;5063769;27;20420;-65
2022/04/19 06:53:18;;;;;;;18.63;9.73;;;;;;;;;;5054024;28;20936;-65
2022/04/19 06:55:44;;;;;;;15.85;10.02;;;;;;;;;;5068683;28;20949;-64
2022/04/19 06:58:10;;;;;;;15.65;9.75;;;;;;;;;;5070042;28;20419;-65
2022/04/19 07:00:36;;;;;;;14.63;9.88;;;;;;;;;;5066651;27;20412;-65
2022/04/19 07:03:02;;;;;;;16.55;9.60;;;;;;;;;;5061042;28;20445;-66
2022/04/19 07:05:28;;;;;;;14.18;9.40;;;;;;;;;;5065519;28;20949;-66
2022/04/19 07:07:55;;;;;;;14.32;8.80;;;;;;;;;;5069792;28;20424;-65
2022/04/19 07:10:21;;;;;;;11.80;8.68;;;;;;;;;;5063024;28;20437;-66
2022/04/19 07:12:47;;;;;;;14.60;8.05;;;;;;;;;;5068878;28;20464;-66
2022/04/19 07:15:14;;;;;;;12.02;8.05;;;;;;;;;;5068995;28;20414;-65
2022/04/19 07:17:41;;;;;;;13.73;8.40;;;;;;;;;;5063371;28;20447;-65
2022/04/19 07:28:23;;;;;;;14.73;8.18;;;;;;;;;;5068677;28;20420;-67
2022/04/19 07:30:49;;;;;;;13.38;7.90;;;;;;;;;;5070190;28;20432;-66
2022/04/19 07:33:16;;;;;;;11.48;7.82;;;;;;;;;;5065314;28;20419;-66
2022/04/19 07:35:42;;;;;;;12.20;7.63;;;;;;;;;;5067451;28;20408;-67
2022/04/19 07:38:09;;;;;;;15.15;8.05;;;;;;;;;;5058394;28;20434;-67
2022/04/19 07:40:36;;;;;;;10.93;7.33;;;;;;;;;;5063417;28;20488;-66
2022/04/19 07:43:02;;;;;;;10.75;7.13;;;;;;;;;;5043166;27;20453;-65
2022/04/19 07:45:29;;;;;;;10.87;6.83;;;;;;;;;;5059394;28;20420;-65
2022/04/19 07:47:55;;;;;;;12.40;6.68;;;;;;;;;;5068807;28;20425;-63
2022/04/19 07:50:21;;;;;;;10.52;5.95;;;;;;;;;;5047865;27;20942;-64
2022/04/19 07:52:47;;;;;;;11.43;6.63;;;;;;;;;;5067172;27;20425;-64
2022/04/19 07:55:13;;;;;;;11.57;6.60;;;;;;;;;;5061799;28;20424;-64
2022/04/19 07:57:39;;;;;;;9.95;5.85;;;;;;;;;;5071154;28;20454;-63
2022/04/19 08:00:06;;;;;;;14.55;6.25;;;;;;;;;;5070491;27;20974;-67
2022/04/19 08:02:32;;;;;;;8.82;5.63;;;;;;;;;;5068874;28;20985;-67
2022/04/19 08:04:58;;;;;;;12.43;6.43;;;13.70;99.90;;;;;;5058765;28;20425;-66
2022/04/19 08:07:24;;;;;;;7.40;5.15;;;;;;;;;;5065019;28;20470;-67
2022/04/19 08:09:50;;;;;;;8.02;5.57;;;;;;;;;;5066988;27;20515;-66
2022/04/19 08:12:15;;;;;;;12.05;5.80;;;14.60;99.90;;;;;;5052009;27;20416;-66
2022/04/19 08:14:42;;;;;;;8.63;5.50;;;;;;;;;;5068593;28;20446;-66
2022/04/19 08:17:08;;;;;;;9.60;5.37;;;14.70;99.90;;;;;;5067781;28;20439;-66
2022/04/19 08:19:34;;;;;;;8.63;5.00;;;;;;;;;;5073678;28;20424;-66
2022/04/19 08:22:00;;;;;;;7.93;4.78;;;;;;;;;;5065789;28;20513;-67
2022/04/19 08:24:26;;;;;;;8.48;4.60;;;;;;;;;;5086271;27;20429;-66
2022/04/19 08:26:52;;;;;;;9.00;4.78;;;;;;;;;;5072555;28;20422;-67
2022/04/19 08:29:18;;;;;;;7.40;4.93;;;;;;;;;;5072447;28;20695;-67
2022/04/19 08:31:44;;;;;;;6.93;4.72;;;;;;;;;;5071054;28;20428;-66
2022/04/19 08:34:11;;;;;;;8.65;5.10;;;;;;;;;;5045638;27;20424;-67
2022/04/19 08:36:37;;;;;;;7.95;5.00;;;;;;;;;;5072044;28;20416;-67
2022/04/19 08:39:03;;;;;;;7.85;4.90;;;;;;;;;;5047408;28;20952;-65
2022/04/19 08:41:30;;;;;;;8.80;5.32;;;;;;;;;;5066656;28;20436;-66
2022/04/19 08:43:56;;;;;;;6.95;4.78;;;;;;;;;;5072771;28;20435;-65
2022/04/19 08:46:23;;;;;;;7.80;4.65;;;;;;;;;;5066199;28;20440;-66
2022/04/19 08:48:49;;;;;;;8.02;5.05;;;;;;;;;;5068368;28;20429;-66
2022/04/19 08:51:20;;;;;;;8.25;4.70;;;;;;;;;;5070789;28;20542;-65
2022/04/19 08:59:16;;;;;;;11.55;4.30;;;;;;;;;;5067961;28;20424;-65
2022/04/19 09:01:42;;;;;;;7.70;4.53;;;15.90;99.90;;;;;;5070720;28;20430;-64
2022/04/19 09:04:08;;;;;;;7.32;4.07;;;;;;;;;;5062551;27;20416;-64
2022/04/19 09:07:00;;;;;;;6.97;4.47;;;;;;;;;;5072712;28;20431;-64
2022/04/19 09:09:26;;;;;;;5.75;3.40;;;;;;;;;;5070902;28;20495;-65
2022/04/19 09:11:54;;;;;;;5.32;3.55;;;;;;;;;;5064319;27;20480;-65
2022/04/19 09:14:22;;;;;;;5.75;2.83;;;;;;;;;;5070757;28;20431;-64
2022/04/19 09:16:48;;;;;;;5.70;3.33;;;;;;;;;;5047483;28;20426;-65
2022/04/19 09:19:27;;;;;;;6.05;3.40;;;;;;;;;;5072234;28;20836;-65
2022/04/19 09:21:53;;;;;;;7.03;2.95;;;;;;;;;;5070057;28;20431;-63
2022/04/19 09:24:20;;;;;;;4.65;2.30;;;;;;;;;;5096462;27;20453;-65
2022/04/19 09:26:48;;;;;;;7.03;2.53;;;;;;;;;;5071227;28;20412;-64
2022/04/19 09:29:27;;;;;;;5.80;2.40;;;;;;;;;;5069324;28;20428;-64
2022/04/19 09:31:54;;;;;;;5.07;2.30;;;;;;;;;;5070147;28;20424;-65
2022/04/19 09:34:28;;;;;;;4.72;2.38;;;;;;;;;;5068192;27;21209;-63
2022/04/19 09:37:08;;;;;;;7.60;2.75;;;;;;;;;;5071407;28;20424;-65
2022/04/19 09:39:37;;;;;;;5.47;2.80;;;;;;;;;;5065988;28;20468;-64
2022/04/19 09:42:05;;;;;;;8.88;3.00;;;;;;;;;;5069617;28;20469;-64
2022/04/19 09:44:36;;;;;;;6.85;2.88;;;;;;;;;;5068564;28;20433;-65
2022/04/19 09:47:06;;;;;;;5.37;2.30;;;16.50;96.70;;;;;;5070040;28;20507;-65
2022/04/19 09:49:44;;;;;;;5.25;1.80;;;;;;;;;;5070682;28;20424;-65
2022/04/19 09:52:14;;;;;;;9.60;2.38;;;;;;;;;;5072802;28;20432;-64
2022/04/19 09:54:43;;;;;;;5.25;2.28;;;;;;;;;;5063296;27;20412;-65
2022/04/19 09:57:10;;;;;;;4.28;1.90;;;;;;;;;;5052153;27;20439;-64
2022/04/19 09:59:43;;;;;;;4.70;2.08;;;;;;;;;;5049386;27;20663;-64
2022/04/19 10:10:27;;;;;;;4.50;1.63;;;;;;;;;;5069560;27;20416;-64
2022/04/19 10:12:53;;;;;;;3.27;1.50;;;17.00;96.70;;;;;;5069994;27;20814;-64
2022/04/19 10:15:20;;;;;;;6.32;1.55;;;;;;;;;;5058279;27;20437;-64
2022/04/19 10:17:47;;;;;;;3.75;1.70;;;;;;;;;;5061304;28;20510;-64
2022/04/19 10:20:14;;;;;;;4.43;1.95;;;;;;;;;;5065340;28;20412;-64
2022/04/19 10:22:48;;;;;;;5.77;1.87;;;;;;;;;;5068551;27;20480;-64
2022/04/19 10:25:14;;;;;;;3.83;1.95;;;;;;;;;;5059604;27;20424;-64
2022/04/19 10:27:40;;;;;;;5.32;2.00;;;;;;;;;;5078800;27;20438;-65
2022/04/19 10:30:07;;;;;;;3.97;1.83;;;;;;;;;;5062787;27;20426;-64
2022/04/19 10:32:34;;;;;;;9.10;2.17;;;;;;;;;;5063514;27;20557;-65
2022/04/19 10:35:00;;;;;;;7.43;1.70;;;;;;;;;;5065320;27;20774;-65
2022/04/19 10:37:27;;;;;;;11.82;2.13;;;;;;;;;;5071011;28;20416;-64
2022/04/19 10:39:59;;;;;;;5.90;2.13;;;;;;;;;;5065743;27;20934;-65
2022/04/19 10:42:43;;;;;;;2.90;2.00;;;;;;;;;;5066764;27;20508;-65
2022/04/19 10:45:12;;;;;;;4.35;1.70;;;;;;;;;;5066681;27;20422;-63
2022/04/19 10:47:54;;;;;;;5.30;1.73;;;;;;;;;;5066215;28;21338;-64
2022/04/19 10:50:28;;;;;;;3.60;1.60;;;;;;;;;;5047112;27;20515;-65
2022/04/19 10:52:58;;;;;;;5.93;2.17;;;;;;;;;;5063896;27;20431;-64
2022/04/19 10:55:26;;;;;;;6.57;2.00;;;;;;;;;;5058887;27;20431;-64
2022/04/19 10:58:09;;;;;;;4.60;1.90;;;;;;;;;;5052841;28;20416;-64
2022/04/19 11:00:35;;;;;;;6.43;2.23;;;;;;;;;;5067885;27;20428;-65
2022/04/19 11:03:02;;;;;;;4.68;2.38;;;;;;;;;;5062828;27;20915;-65
2022/04/19 11:05:41;;;;;;;4.35;2.22;;;;;;;;;;5063555;27;20433;-65
2022/04/19 11:08:19;;;;;;;3.90;2.47;;;;;;;;;;5067572;28;20480;-65
2022/04/19 11:10:45;;;;;;;6.88;2.72;;;;;;;;;;5061539;28;20434;-66
2022/04/19 11:13:14;;;;;;;5.68;2.67;;;17.00;98.70;;;;;;5067217;27;20412;-64
2022/04/19 11:15:42;;;;;;;6.07;2.80;;;;;;;;;;5066721;27;20426;-65
2022/04/19 11:18:24;;;;;;;12.27;2.90;;;;;;;;;;5051600;28;20427;-64
2022/04/19 11:21:01;;;;;;;6.40;2.65;;;;;;;;;;5064328;27;20467;-65
2022/04/19 11:23:29;;;;;;;6.03;2.80;;;;;;;;;;5075451;27;20498;-65
2022/04/19 11:25:56;;;;;;;7.15;2.88;;;;;;;;;;5070131;27;20416;-65
2022/04/19 11:28:24;;;;;;;5.57;2.75;;;;;;;;;;5050049;28;20858;-64
2022/04/19 11:30:50;;;;;;;5.63;2.58;;;;;;;;;;5066719;27;20431;-64
2022/04/19 11:33:23;;;;;;;3.90;2.17;;;;;;;;;;5062667;28;20419;-66
2022/04/19 11:35:58;;;;;;;4.93;2.50;;;;;;;;;;5065992;27;20420;-65
2022/04/19 11:38:24;;;;;;;4.97;2.40;;;;;;;;;;5070238;28;20423;-65
2022/04/19 11:49:06;;;;;;;8.97;2.50;;;;;;;;;;5068029;27;20458;-66
2022/04/19 11:51:37;;;;;;;3.63;2.30;;;;;;;;;;5066293;28;20435;-65
2022/04/19 11:54:04;;;;;;;7.10;2.90;;;;;;;;;;5059921;27;20458;-65
2022/04/19 11:56:31;;;;;;;4.47;2.80;;;;;;;;;;5062066;27;20920;-65
2022/04/19 11:59:01;;;;;;;6.47;3.33;;;;;;;;;;5067832;28;20420;-65
2022/04/19 12:01:30;;;;;;;4.43;2.90;;;;;;;;;;5068002;28;20522;-65
2022/04/19 12:03:57;;;;;;;6.35;2.80;;;;;;;;;;5047734;27;20432;-64
2022/04/19 12:06:23;;;;;;;6.43;2.80;;;;;;;;;;5067675;28;20772;-65
2022/04/19 12:08:51;;;;;;;6.22;3.17;;;17.90;96.70;;;;;;5074147;28;20430;-64
2022/04/19 12:11:21;;;;;;;7.17;2.70;;;;;;;;;;5069721;28;20416;-65
2022/04/19 12:13:48;;;;;;;6.45;2.90;;;;;;;;;;5065707;27;20497;-64
2022/04/19 12:16:34;;;;;;;6.10;3.50;;;17.40;96.50;;;;;;5061778;27;20424;-65
2022/04/19 12:19:02;;;;;;;5.75;2.90;;;18.30;98.10;;;;;;5070409;28;20439;-65
2022/04/19 12:21:38;;;;;;;4.45;2.92;;;;;;;;;;5073734;27;20424;-65
2022/04/19 12:24:04;;;;;;;5.38;2.72;;;;;;;;;;5083253;27;20435;-65
2022/04/19 12:26:31;;;;;;;5.60;3.10;;;;;;;;;;5071585;27;20431;-65
2022/04/19 12:29:06;;;;;;;7.82;2.97;;;;;;;;;;5068842;28;20488;-65
2022/04/19 12:31:34;;;;;;;3.90;2.60;;;;;;;;;;5069426;27;20429;-65
2022/04/19 12:34:03;;;;;;;7.10;2.85;;;;;;;;;;5071152;28;20424;-64
2022/04/19 12:36:40;;;;;;;6.07;2.60;;;;;;;;;;5067977;27;20756;-65
2022/04/19 12:39:06;;;;;;;7.33;2.90;;;;;;;;;;5072229;28;20435;-64
2022/04/19 12:41:33;;;;;;;6.50;2.70;;;;;;;;;;5113505;27;20433;-64
2022/04/19 12:44:03;;;;;;;4.80;2.75;;;18.80;96.10;;;;;;5069487;28;20469;-64
2022/04/19 12:46:31;;;;;;;5.40;2.80;;;;;;;;;;5043523;27;20445;-65
2022/04/19 12:48:57;;;;;;;4.97;2.80;;;;;;;;;;5044527;27;20512;-65
2022/04/19 12:51:26;;;;;;;3.53;2.40;;;19.30;95.20;;;;;;5069400;28;20859;-64
2022/04/19 12:54:02;;;;;;;7.38;2.60;;;19.10;94.70;;;;;;5065376;28;20508;-66
2022/04/19 12:56:29;;;;;;;4.57;2.67;;;;;;;;;;5052668;27;20985;-65
2022/04/19 12:58:54;;;;;;;4.53;2.25;;;19.00;95.20;;;;;;5068457;27;20416;-67
2022/04/19 13:01:20;;;;;;;4.25;2.22;;;;;;;;;;5052366;27;20429;-64
2022/04/19 13:03:46;;;;;;;4.85;2.75;;;19.20;95.20;;;;;;5068991;28;20529;-64
2022/04/19 13:14:26;;;;;;;4.97;2.70;;;19.70;95.70;;;;;;5073353;28;20747;-65
2022/04/19 13:16:51;;;;;;;4.60;2.33;;;19.60;94.60;;;;;;5062995;27;20430;-64
2022/04/19 13:19:17;;;;;;;5.27;2.33;;;19.30;95.00;;;;;;5073877;28;20423;-64
2022/04/19 13:21:43;;;;;;;5.35;2.75;;;18.70;94.70;;;;;;5068517;27;20426;-64
2022/04/19 13:24:09;;;;;;;3.70;2.57;;;;;;;;;;5083612;27;20432;-65
2022/04/19 13:26:36;;;;;;;4.40;2.80;;;18.60;95.30;;;;;;5074302;28;20443;-65
2022/04/19 13:29:02;;;;;;;3.90;2.40;;;19.20;95.10;;;;;;5043578;28;20440;-64
2022/04/19 13:31:28;;;;;;;3.70;2.10;;;18.90;95.30;;;;;;5072628;28;20475;-66
2022/04/19 13:33:54;;;;;;;4.10;2.50;;;;;;;;;;5064221;27;20423;-65
2022/04/19 13:36:20;;;;;;;5.18;2.50;;;;;;;;;;5052975;28;20427;-71
2022/04/19 13:38:46;;;;;;;5.65;2.80;;;19.60;94.70;;;;;;5065296;28;20441;-71
2022/04/19 13:41:12;;;;;;;5.50;2.60;;;;;;;;;;5081715;28;20424;-75
2022/04/19 13:43:38;;;;;;;4.93;2.78;;;;;;;;;;5068122;27;20432;-70
2022/04/19 13:46:06;;;;;;;3.90;2.50;;;;;;;;;;5025850;27;20429;-69
2022/04/19 13:48:32;;;;;;;3.47;2.33;;;;;;;;;;5017886;28;20839;-67
2022/04/19 13:50:58;;;;;;;5.97;2.28;;;;;;;;;;5013970;28;20473;-69
2022/04/19 13:53:25;;;;;;;4.38;2.50;;;;;;;;;;5014581;28;20915;-67
2022/04/19 13:55:52;;;;;;;3.90;2.17;;;;;;;;;;5044341;27;20488;-67
2022/04/19 13:58:18;;;;;;;3.90;2.50;;;;;;;;;;5050582;27;20524;-68
2022/04/19 14:00:45;;;;;;;4.97;2.47;;;;;;;;;;5048131;27;20437;-67
2022/04/19 14:03:11;;;;;;;5.15;2.47;;;;;;;;;;5046390;27;20443;-65
2022/04/19 14:05:38;;;;;;;3.90;2.40;;;;;;;;;;5051183;27;20446;-67
2022/04/19 14:08:04;;;;;;;4.50;2.53;;;;;;;;;;5045295;27;20481;-67
2022/04/19 14:10:30;;;;;;;5.57;2.80;;;;;;;;;;5061363;27;20490;-68
2022/04/19 14:12:56;;;;;;;4.70;2.88;;;;;;;;;;5049657;27;20408;-67
2022/04/19 14:15:22;;;;;;;4.60;2.80;;;;;;;;;;5066999;28;21042;-70
2022/04/19 14:17:48;;;;;;;4.85;2.70;;;;;;;;;;5068554;28;20423;-70
2022/04/19 14:20:16;;;;;;;5.00;3.20;;;;;;;;;;5067660;28;20646;-70
2022/04/19 14:22:42;;;;;;;4.68;3.15;;;;;;;;;;5052468;27;20455;-70
2022/04/19 14:34:13;;;;;;;7.35;4.40;;;;;;;;;;5069048;27;20420;-69
2022/04/19 14:36:40;;;;;;;5.72;3.88;;;;;;;;;;5051838;27;20434;-70
2022/04/19 14:39:06;;;;;;;5.50;3.30;;;;;;;;;;5036101;27;20501;-68
2022/04/19 14:41:32;;;;;;;4.90;3.00;;;;;;;;;;5067178;28;20427;-69
2022/04/19 14:43:59;;;;;;;4.68;3.30;;;;;;;;;;5066581;28;20435;-69
2022/04/19 14:46:25;;;;;;;5.28;3.30;;;;;;;;;;5048470;28;20416;-70
2022/04/19 14:48:51;;;;;;;5.50;3.75;;;;;;;;;;5027064;28;20482;-70
2022/04/19 14:54:02;;;;;;;7.45;3.30;;;;;;;;;;5055325;28;20430;-71
2022/04/19 14:56:28;;;;;;;5.32;3.17;;;;;;;;;;5062856;28;20412;-69
2022/04/19 14:58:54;;;;;;;5.67;3.70;;;;;;;;;;5064164;28;20416;-64
2022/04/19 15:01:20;;;;;;;6.30;3.50;;;;;;;;;;5067687;28;20434;-67
2022/04/19 15:03:46;;;;;;;5.78;3.50;;;;;;;;;;5060586;28;20454;-64
2022/04/19 15:06:12;;;;;;;5.50;3.75;;;;;;;;;;5078267;27;20427;-64
2022/04/19 15:08:38;;;;;;;5.50;3.72;;;;;;;;;;5027510;28;20600;-64
2022/04/19 15:11:05;;;;;;;5.87;3.63;;;;;;;;;;5061643;28;20439;-66
2022/04/19 15:13:31;;;;;;;6.68;3.88;;;17.60;97.90;;;;;;5070505;28;20416;-64
2022/04/19 15:15:57;;;;;;;6.65;4.38;;;;;;;;;;5061519;28;20483;-64
2022/04/19 15:18:23;;;;;;;8.45;4.65;;;;;;;;;;5069703;27;20989;-64
2022/04/19 15:20:49;;;;;;;7.22;4.35;;;;;;;;;;5059107;27;20426;-64